Time;durP1;ratioP1;P1;durP2;ratioP2;P2;SDS_P1;SDS_P2;PMS_P1;PMS_P2;Temp;Humidity;BMP_temperature;BMP_pressure;BME280_temperature;BME280_humidity;BME280_pressure;Samples;Min_cycle;Max_cycle;Signal;HPM_P1;HPM_P2
2021/04/23 00:00:44;;;;;;;9.70;6.00;;;8.50;56.80;;;;;;5037664;28;20464;-87
2021/04/23 00:03:23;;;;;;;6.60;4.10;;;8.50;57.00;;;;;;5037631;28;20441;-87
2021/04/23 00:05:53;;;;;;;8.83;5.43;;;8.50;57.10;;;;;;5037279;28;20489;-87
2021/04/23 00:08:20;;;;;;;13.03;5.10;;;8.60;57.30;;;;;;5038557;28;20457;-87
2021/04/23 00:10:48;;;;;;;6.40;4.73;;;8.50;57.60;;;;;;5036927;28;20509;-87
2021/04/23 00:13:15;;;;;;;7.17;4.80;;;8.40;58.00;;;;;;5036032;28;20848;-87
2021/04/23 00:15:42;;;;;;;9.17;5.30;;;8.40;58.20;;;;;;5036266;28;20504;-86
2021/04/23 00:18:10;;;;;;;9.60;5.70;;;8.30;58.50;;;;;;5037554;28;20456;-87
2021/04/23 00:20:38;;;;;;;11.73;5.40;;;8.20;59.00;;;;;;5036651;28;20438;-86
2021/04/23 00:23:06;;;;;;;12.53;6.27;;;8.30;59.30;;;;;;5039107;28;20949;-87
2021/04/23 00:25:34;;;;;;;14.97;5.63;;;8.30;59.40;;;;;;5037102;28;20477;-87
2021/04/23 00:28:04;;;;;;;5.40;4.60;;;8.30;59.60;;;;;;5036913;28;20457;-87
2021/04/23 00:30:33;;;;;;;7.40;4.90;;;8.30;59.20;;;;;;5037084;28;20514;-87
2021/04/23 00:33:00;;;;;;;10.13;6.70;;;8.30;59.90;;;;;;5037670;28;21099;-87
2021/04/23 00:35:29;;;;;;;11.17;6.83;;;8.10;59.70;;;;;;5036855;28;20477;-87
2021/04/23 00:37:58;;;;;;;15.63;7.33;;;8.00;59.90;;;;;;5034641;22;20587;-87
2021/04/23 00:40:27;;;;;;;17.60;7.07;;;8.00;60.10;;;;;;5038153;28;20445;-87
2021/04/23 00:42:53;;;;;;;9.10;6.33;;;8.00;60.30;;;;;;5045600;28;20467;-86
2021/04/23 00:45:23;;;;;;;13.00;6.10;;;8.00;60.70;;;;;;5058898;28;20429;-86
2021/04/23 00:47:52;;;;;;;10.63;6.07;;;8.00;60.90;;;;;;5047467;28;20461;-87
2021/04/23 00:50:31;;;;;;;11.77;5.77;;;8.00;60.60;;;;;;5020020;28;20453;-87
2021/04/23 00:53:00;;;;;;;6.80;5.63;;;8.00;60.90;;;;;;5018367;28;20580;-87
2021/04/23 00:55:27;;;;;;;10.67;6.37;;;7.90;61.00;;;;;;5020201;28;20442;-86
2021/04/23 00:57:54;;;;;;;10.87;6.83;;;7.90;60.70;;;;;;5037256;28;20469;-87
2021/04/23 01:00:21;;;;;;;10.47;6.13;;;7.80;60.70;;;;;;5037296;28;20945;-86
2021/04/23 01:03:02;;;;;;;10.20;6.30;;;7.80;61.20;;;;;;5040558;28;20467;-88
2021/04/23 01:06:03;;;;;;;8.97;6.03;;;7.80;61.30;;;;;;5042577;28;20456;-88
2021/04/23 01:12:21;;;;;;;8.93;5.73;;;7.70;62.40;;;;;;5007180;28;20985;-86
2021/04/23 01:14:50;;;;;;;11.30;6.37;;;7.60;63.00;;;;;;5023864;28;20734;-87
2021/04/23 01:18:00;;;;;;;6.53;5.37;;;7.60;63.20;;;;;;5035378;28;20481;-88
2021/04/23 01:20:27;;;;;;;9.53;5.77;;;7.60;62.80;;;;;;5000488;28;20444;-87
2021/04/23 01:22:54;;;;;;;8.50;5.60;;;7.50;62.70;;;;;;5015040;28;20427;-86
2021/04/23 01:25:23;;;;;;;7.23;5.00;;;7.50;63.00;;;;;;5020190;28;20453;-87
2021/04/23 01:27:49;;;;;;;6.60;5.47;;;7.40;63.40;;;;;;5046749;28;20456;-86
2021/04/23 01:30:19;;;;;;;8.43;4.77;;;7.50;63.60;;;;;;5055100;28;20923;-86
2021/04/23 01:32:46;;;;;;;7.00;5.53;;;7.40;63.50;;;;;;5048184;28;20461;-85
2021/04/23 01:35:16;;;;;;;8.03;5.20;;;7.50;63.40;;;;;;5048746;28;20448;-87
2021/04/23 01:37:43;;;;;;;8.30;5.10;;;7.50;63.40;;;;;;5022835;28;20478;-86
2021/04/23 01:40:13;;;;;;;17.20;5.27;;;7.40;63.50;;;;;;5023157;28;20469;-85
2021/04/23 01:42:40;;;;;;;11.73;6.63;;;7.50;63.60;;;;;;5035358;28;20473;-87
2021/04/23 01:45:10;;;;;;;8.47;6.50;;;7.40;63.30;;;;;;5035211;28;20462;-86
2021/04/23 01:47:37;;;;;;;11.00;6.97;;;7.30;63.10;;;;;;5050554;28;20465;-86
2021/04/23 01:50:06;;;;;;;12.30;6.00;;;7.20;63.60;;;;;;5053018;28;20438;-87
2021/04/23 01:52:41;;;;;;;8.33;6.07;;;7.30;63.90;;;;;;5056793;28;20476;-87
2021/04/23 01:55:10;;;;;;;11.60;6.20;;;7.20;64.00;;;;;;5051725;28;20512;-86
2021/04/23 01:57:41;;;;;;;9.67;6.00;;;7.10;64.60;;;;;;5058128;28;20468;-86
2021/04/23 02:00:16;;;;;;;10.63;5.67;;;7.10;65.00;;;;;;5055278;28;20487;-87
2021/04/23 02:02:43;;;;;;;8.40;5.17;;;6.90;65.30;;;;;;5056174;28;20487;-87
2021/04/23 02:05:11;;;;;;;6.50;5.17;;;7.00;66.20;;;;;;5045660;28;20544;-86
2021/04/23 02:07:46;;;;;;;12.07;5.97;;;7.00;66.30;;;;;;5032245;28;20461;-87
2021/04/23 02:10:18;;;;;;;12.60;6.30;;;7.10;66.70;;;;;;5033457;28;20430;-88
2021/04/23 02:12:49;;;;;;;9.30;6.07;;;7.10;66.60;;;;;;5035394;28;20488;-87
2021/04/23 02:15:19;;;;;;;12.57;6.27;;;7.00;67.00;;;;;;5034981;28;20468;-89
2021/04/23 02:17:46;;;;;;;6.20;4.20;;;6.90;67.40;;;;;;5042805;28;20472;-88
2021/04/23 02:20:15;;;;;;;8.60;5.73;;;6.80;67.90;;;;;;5036579;28;20456;-87
2021/04/23 02:22:42;;;;;;;9.07;5.90;;;6.80;68.70;;;;;;5037696;28;20479;-89
2021/04/23 02:25:10;;;;;;;8.70;5.00;;;6.70;69.10;;;;;;5042096;28;20935;-86
2021/04/23 02:27:36;;;;;;;8.30;5.50;;;6.60;70.20;;;;;;5027854;28;20501;-86
2021/04/23 02:30:07;;;;;;;14.70;5.70;;;6.50;70.50;;;;;;5028882;28;20449;-88
2021/04/23 02:32:33;;;;;;;7.60;5.40;;;6.50;70.90;;;;;;5018314;28;20483;-87
2021/04/23 02:35:00;;;;;;;12.80;6.30;;;6.50;71.30;;;;;;5019544;28;20504;-87
2021/04/23 02:37:26;;;;;;;9.10;6.20;;;6.30;71.30;;;;;;5017583;28;20469;-88
2021/04/23 02:39:52;;;;;;;6.30;5.03;;;6.20;71.20;;;;;;5020230;28;20483;-87
2021/04/23 02:42:19;;;;;;;11.30;6.30;;;6.20;71.80;;;;;;5029781;28;20485;-86
2021/04/23 02:44:46;;;;;;;12.20;6.50;;;6.10;71.70;;;;;;5036613;28;20437;-86
2021/04/23 02:47:13;;;;;;;11.07;6.57;;;6.10;72.00;;;;;;5028508;28;20466;-87
2021/04/23 02:49:39;;;;;;;8.40;7.13;;;6.20;72.30;;;;;;5017990;28;20446;-87
2021/04/23 02:52:06;;;;;;;8.10;5.23;;;6.10;71.80;;;;;;5021778;28;20458;-87
2021/04/23 02:54:32;;;;;;;13.50;5.77;;;6.20;71.80;;;;;;5039253;28;20531;-87
2021/04/23 02:56:59;;;;;;;17.57;5.97;;;6.20;71.50;;;;;;5040315;28;20469;-86
2021/04/23 02:59:25;;;;;;;11.27;5.20;;;6.20;71.80;;;;;;5036934;28;20444;-87
2021/04/23 03:01:56;;;;;;;11.17;5.37;;;6.20;71.90;;;;;;5035623;28;21017;-87
2021/04/23 03:04:23;;;;;;;12.77;6.80;;;6.20;71.70;;;;;;5016930;28;20457;-87
2021/04/23 03:06:50;;;;;;;11.30;5.10;;;6.20;71.70;;;;;;5028076;28;20476;-85
2021/04/23 03:09:16;;;;;;;9.23;5.37;;;6.20;72.00;;;;;;5029932;28;20466;-86
2021/04/23 03:11:43;;;;;;;7.20;5.53;;;6.10;71.90;;;;;;5018806;28;20441;-87
2021/04/23 03:14:10;;;;;;;9.60;5.37;;;6.00;72.00;;;;;;5017969;28;20507;-86
2021/04/23 03:16:38;;;;;;;10.43;6.00;;;6.00;72.20;;;;;;5018355;28;20469;-87
2021/04/23 03:19:10;;;;;;;10.40;5.83;;;6.00;72.60;;;;;;5020127;28;20454;-87
2021/04/23 03:21:37;;;;;;;10.97;6.13;;;5.90;73.10;;;;;;5024286;28;20454;-86
2021/04/23 03:24:05;;;;;;;7.43;6.07;;;5.90;73.70;;;;;;5047850;28;20453;-87
2021/04/23 03:26:32;;;;;;;11.47;7.30;;;5.90;73.90;;;;;;5039214;28;20932;-87
2021/04/23 03:28:58;;;;;;;12.60;7.30;;;5.90;74.50;;;;;;5036162;28;20459;-86
2021/04/23 03:31:24;;;;;;;9.50;5.67;;;5.80;74.60;;;;;;5040367;28;20531;-85
2021/04/23 03:33:51;;;;;;;9.73;6.83;;;5.80;74.40;;;;;;5053842;28;20502;-86
2021/04/23 03:36:17;;;;;;;12.33;7.50;;;5.70;74.30;;;;;;5039196;28;20471;-86
2021/04/23 03:38:46;;;;;;;11.87;6.60;;;5.70;74.60;;;;;;5035931;28;20456;-86
2021/04/23 03:41:18;;;;;;;14.70;7.10;;;5.60;74.90;;;;;;5037223;28;20605;-87
2021/04/23 03:43:45;;;;;;;12.53;7.00;;;5.60;75.40;;;;;;5039706;28;20509;-87
2021/04/23 03:46:12;;;;;;;13.73;8.50;;;5.50;76.00;;;;;;5046181;28;20446;-86
2021/04/23 03:48:39;;;;;;;11.20;7.95;;;5.50;76.50;;;;;;5046306;28;20458;-87
2021/04/23 03:51:07;;;;;;;22.13;7.50;;;5.50;76.80;;;;;;5044177;28;20231;-86
2021/04/23 03:53:34;;;;;;;14.13;8.10;;;5.50;77.00;;;;;;5032279;28;20480;-86
2021/04/23 03:56:02;;;;;;;10.93;7.63;;;5.30;77.10;;;;;;5037916;28;20460;-85
2021/04/23 03:58:29;;;;;;;15.43;8.40;;;5.40;77.10;;;;;;5040009;28;20478;-85
2021/04/23 04:00:57;;;;;;;13.30;7.93;;;5.40;78.40;;;;;;5033950;28;20805;-86
2021/04/23 04:03:28;;;;;;;14.43;9.82;;;5.50;78.00;;;;;;5049517;28;20435;-88
2021/04/23 04:05:55;;;;;;;15.97;8.50;;;5.50;78.00;;;;;;5059651;28;20188;-86
2021/04/23 04:08:21;;;;;;;13.10;10.20;;;5.50;77.80;;;;;;5059636;28;20447;-87
2021/04/23 04:10:48;;;;;;;19.77;9.63;;;5.50;78.20;;;;;;5059923;28;20444;-87
2021/04/23 04:13:17;;;;;;;20.60;9.63;;;5.30;78.50;;;;;;5043494;28;20486;-88
2021/04/23 04:15:44;;;;;;;17.57;10.03;;;5.30;79.20;;;;;;5023439;28;20789;-88
2021/04/23 04:18:13;;;;;;;25.80;10.20;;;5.30;79.70;;;;;;5021474;28;20492;-87
2021/04/23 04:20:42;;;;;;;14.83;9.43;;;5.30;79.60;;;;;;5019707;28;20526;-85
2021/04/23 04:23:14;;;;;;;15.68;10.02;;;5.30;80.50;;;;;;5020108;28;20447;-86
2021/04/23 04:25:44;;;;;;;20.83;11.20;;;5.30;80.50;;;;;;5045576;28;20212;-87
2021/04/23 04:28:20;;;;;;;15.67;9.93;;;5.20;80.90;;;;;;5028151;28;20224;-87
2021/04/23 04:30:50;;;;;;;17.80;10.68;;;5.30;80.90;;;;;;5041011;28;20450;-88
2021/04/23 04:33:17;;;;;;;15.38;10.02;;;5.30;80.80;;;;;;5040900;28;20243;-88
2021/04/23 04:35:45;;;;;;;18.17;10.40;;;5.30;80.80;;;;;;5040400;28;20290;-88
2021/04/23 04:38:16;;;;;;;18.10;10.10;;;5.40;80.70;;;;;;5039342;28;20227;-88
2021/04/23 04:40:53;;;;;;;17.33;9.70;;;5.40;80.60;;;;;;5034104;28;20483;-89
2021/04/23 04:43:23;;;;;;;17.75;9.63;;;5.40;80.80;;;;;;5024360;28;20453;-87
2021/04/23 04:46:12;;;;;;;22.70;10.73;;;5.50;81.10;;;;;;5036420;28;20189;-86
2021/04/23 04:48:51;;;;;;;22.80;11.00;;;5.60;81.30;;;;;;5039726;28;20436;-87
2021/04/23 04:51:29;;;;;;;17.75;10.30;;;5.90;80.40;;;;;;5041627;28;20445;-87
2021/04/23 04:53:56;;;;;;;21.07;10.97;;;6.20;79.10;;;;;;5057302;28;20236;-88
2021/04/23 04:56:22;;;;;;;19.57;10.30;;;6.30;77.80;;;;;;5019350;28;20994;-87
2021/04/23 04:58:48;;;;;;;18.40;10.53;;;6.60;77.10;;;;;;5025650;28;20464;-87
2021/04/23 05:01:16;;;;;;;17.70;10.50;;;6.80;75.80;;;;;;5027363;28;20451;-87
2021/04/23 05:03:43;;;;;;;19.17;13.03;;;7.00;74.90;;;;;;5021456;28;20453;-87
2021/04/23 05:06:11;;;;;;;19.87;10.43;;;7.20;74.00;;;;;;5024434;28;20461;-87
2021/04/23 05:08:38;;;;;;;23.07;12.23;;;7.50;72.90;;;;;;5028495;28;20454;-87
2021/04/23 05:11:05;;;;;;;17.57;11.57;;;7.90;72.00;;;;;;5038127;28;20422;-87
2021/04/23 05:13:32;;;;;;;24.27;11.23;;;8.20;70.20;;;;;;5022154;28;20485;-86
2021/04/23 05:15:59;;;;;;;20.10;12.83;;;8.50;69.00;;;;;;5028298;28;20474;-87
2021/04/23 05:18:26;;;;;;;19.80;10.40;;;8.80;67.60;;;;;;5035295;28;20434;-87
2021/04/23 05:20:53;;;;;;;20.50;11.43;;;8.90;66.80;;;;;;5031467;28;20438;-87
2021/04/23 05:23:19;;;;;;;24.73;11.40;;;8.90;66.50;;;;;;5042071;28;20532;-87
2021/04/23 05:25:45;;;;;;;20.93;10.90;;;9.00;65.60;;;;;;5042184;28;20532;-87
2021/04/23 05:28:12;;;;;;;25.67;10.93;;;8.80;65.30;;;;;;5039145;28;20479;-87
2021/04/23 05:30:39;;;;;;;21.20;11.10;;;8.80;65.80;;;;;;5038268;28;20856;-86
2021/04/23 05:33:07;;;;;;;20.23;12.80;;;9.00;66.10;;;;;;5018758;28;20470;-87
2021/04/23 05:35:35;;;;;;;17.17;12.30;;;9.20;65.40;;;;;;5032398;28;20449;-87
2021/04/23 05:38:05;;;;;;;17.90;11.97;;;9.30;64.60;;;;;;5038838;28;20481;-86
2021/04/23 05:40:35;;;;;;;20.83;12.77;;;9.30;64.10;;;;;;5050836;28;20453;-87
2021/04/23 05:43:03;;;;;;;19.83;10.73;;;9.30;64.10;;;;;;5024249;28;20446;-87
2021/04/23 05:45:37;;;;;;;14.63;11.47;;;9.20;64.30;;;;;;5020585;28;20962;-87
2021/04/23 05:48:04;;;;;;;15.73;11.57;;;9.50;64.40;;;;;;5020576;28;20473;-85
2021/04/23 05:50:31;;;;;;;16.57;12.23;;;9.60;63.00;;;;;;5019730;28;20450;-86
2021/04/23 05:52:58;;;;;;;23.60;13.57;;;9.70;62.80;;;;;;5035184;28;20480;-86
2021/04/23 05:55:26;;;;;;;26.53;12.97;;;10.20;61.20;;;;;;5038563;28;20483;-87
2021/04/23 05:57:53;;;;;;;21.93;12.57;;;11.00;59.60;;;;;;5040209;28;20469;-86
2021/04/23 06:00:24;;;;;;;17.70;12.23;;;11.50;57.70;;;;;;5036694;28;20450;-87
2021/04/23 06:02:51;;;;;;;20.27;11.50;;;12.00;56.00;;;;;;5018895;28;20450;-86
2021/04/23 06:05:18;;;;;;;19.83;13.00;;;12.60;55.10;;;;;;5018356;28;20463;-88
2021/04/23 06:07:46;;;;;;;14.97;10.80;;;13.00;53.50;;;;;;5017390;28;20465;-86
2021/04/23 06:10:15;;;;;;;14.00;11.40;;;13.60;52.10;;;;;;5026728;28;20452;-87
2021/04/23 06:12:43;;;;;;;16.37;11.60;;;14.00;50.50;;;;;;5019786;28;20482;-87
2021/04/23 06:15:14;;;;;;;20.20;11.90;;;14.40;49.50;;;;;;5021721;28;20455;-87
2021/04/23 06:17:41;;;;;;;14.47;11.60;;;14.80;48.10;;;;;;5014881;28;20506;-87
2021/04/23 06:20:10;;;;;;;16.77;12.30;;;14.60;47.60;;;;;;5015571;28;20846;-87
2021/04/23 06:22:37;;;;;;;18.07;11.83;;;14.10;48.00;;;;;;5013478;28;20455;-85
2021/04/23 06:25:07;;;;;;;17.00;12.43;;;14.90;48.50;;;;;;5016755;28;20498;-87
2021/04/23 06:27:34;;;;;;;17.93;12.30;;;15.50;47.60;;;;;;5033208;28;20470;-87
2021/04/23 06:30:02;;;;;;;18.60;11.83;;;16.10;46.00;;;;;;5018458;28;20435;-87
2021/04/23 06:32:28;;;;;;;15.13;12.63;;;16.70;45.00;;;;;;5025150;28;20453;-88
2021/04/23 06:34:54;;;;;;;14.03;11.87;;;17.30;44.10;;;;;;5048371;28;20515;-88
2021/04/23 06:38:24;;;;;;;14.67;10.73;;;17.60;42.80;;;;;;5061416;22;20569;-84
2021/04/23 06:41:35;;;;;;;16.00;11.70;;;18.00;41.40;;;;;;4987499;28;20528;-85
2021/04/23 06:44:30;;;;;;;14.63;13.00;;;17.80;41.70;;;;;;4960525;28;20542;-86
2021/04/23 06:47:27;;;;;;;18.13;12.50;;;18.20;40.90;;;;;;4981944;28;20478;-85
2021/04/23 06:50:08;;;;;;;15.20;11.50;;;18.50;40.10;;;;;;5012270;28;20438;-85
2021/04/23 06:52:49;;;;;;;15.43;12.63;;;18.90;39.40;;;;;;5034900;28;20432;-85
2021/04/23 06:55:56;;;;;;;40.03;14.10;;;19.30;38.50;;;;;;5022817;28;20982;-84
2021/04/23 07:02:04;;;;;;;16.23;11.53;;;20.10;37.30;;;;;;5008149;28;20452;-85
2021/04/23 07:04:43;;;;;;;13.67;11.30;;;20.30;36.60;;;;;;5000753;28;20432;-85
2021/04/23 08:09:09;;;;;;;13.13;9.47;;;24.90;30.10;;;;;;4830194;29;20464;-87
2021/04/23 08:11:35;;;;;;;14.73;10.07;;;23.20;31.00;;;;;;4844920;29;20532;-88
2021/04/23 08:14:01;;;;;;;14.13;8.60;;;22.90;31.40;;;;;;4875250;29;21074;-87
2021/04/23 08:16:28;;;;;;;13.90;8.67;;;24.00;31.50;;;;;;4945316;28;20456;-88
2021/04/23 08:18:54;;;;;;;16.10;8.37;;;24.90;30.10;;;;;;5019309;28;20488;-87
2021/04/23 08:21:21;;;;;;;18.60;8.67;;;25.50;29.40;;;;;;5026111;28;20434;-85
2021/04/23 08:23:47;;;;;;;9.83;7.70;;;24.70;29.30;;;;;;5027269;28;20456;-86
2021/04/23 08:26:16;;;;;;;13.47;8.40;;;24.90;29.90;;;;;;5039655;28;20447;-85
2021/04/23 08:28:43;;;;;;;15.00;7.83;;;24.10;29.20;;;;;;5046035;28;20455;-86
2021/04/23 08:31:09;;;;;;;13.87;8.60;;;23.80;30.10;;;;;;5060029;28;20437;-84
2021/04/23 08:33:35;;;;;;;11.57;8.73;;;24.70;30.40;;;;;;5041132;28;20515;-86
2021/04/23 08:36:02;;;;;;;13.27;7.50;;;24.50;30.00;;;;;;5035593;28;20463;-87
2021/04/23 08:38:28;;;;;;;19.87;8.03;;;25.30;29.60;;;;;;5046205;28;20648;-86
2021/04/23 08:40:55;;;;;;;9.17;7.57;;;25.80;29.30;;;;;;5044169;28;20978;-86
2021/04/23 08:43:23;;;;;;;8.63;7.43;;;26.70;28.50;;;;;;5038051;28;20472;-87
2021/04/23 08:45:49;;;;;;;9.23;8.33;;;27.50;27.60;;;;;;5038334;28;20481;-88
2021/04/23 08:48:16;;;;;;;11.40;8.17;;;26.90;27.40;;;;;;5038643;28;20471;-87
2021/04/23 08:50:43;;;;;;;12.63;8.00;;;26.90;27.50;;;;;;5036563;28;20475;-87
2021/04/23 08:53:09;;;;;;;11.30;8.10;;;27.50;27.40;;;;;;5037331;28;20480;-84
2021/04/23 08:55:36;;;;;;;12.00;8.13;;;27.90;26.70;;;;;;5036886;28;20437;-87
2021/04/23 08:58:03;;;;;;;14.27;8.07;;;28.70;26.90;;;;;;5036323;28;20480;-84
2021/04/23 09:00:30;;;;;;;9.77;8.27;;;29.80;25.80;;;;;;5036285;28;21027;-86
2021/04/23 09:02:56;;;;;;;11.80;7.97;;;28.00;25.80;;;;;;5036146;28;20455;-87
2021/04/23 09:05:22;;;;;;;10.10;7.40;;;27.00;27.40;;;;;;5037002;28;20445;-85
2021/04/23 09:08:00;;;;;;;13.00;8.70;;;27.30;26.90;;;;;;5052808;28;20456;-86
2021/04/23 09:10:26;;;;;;;8.60;7.40;;;27.10;26.90;;;;;;5036681;28;20447;-87
2021/04/23 09:13:09;;;;;;;12.00;9.13;;;28.30;26.80;;;;;;5036011;28;20454;-87
2021/04/23 09:15:37;;;;;;;13.50;8.57;;;29.50;25.40;;;;;;5048739;28;20461;-86
2021/04/23 09:18:05;;;;;;;10.47;8.07;;;29.70;25.00;;;;;;5052402;28;20521;-87
2021/04/23 09:20:32;;;;;;;9.47;7.07;;;29.50;25.60;;;;;;5047626;28;20979;-85
2021/04/23 09:23:06;;;;;;;12.53;7.77;;;30.10;25.40;;;;;;5042116;28;20471;-85
2021/04/23 09:25:42;;;;;;;9.80;7.03;;;31.10;24.40;;;;;;5050671;28;20444;-84
2021/04/23 09:28:09;;;;;;;8.27;6.80;;;30.40;24.30;;;;;;5049263;28;20496;-87
2021/04/23 09:30:36;;;;;;;14.90;8.03;;;31.60;23.80;;;;;;5039233;28;20462;-84
2021/04/23 09:33:03;;;;;;;11.63;8.00;;;32.70;23.20;;;;;;5037558;28;20505;-87
2021/04/23 09:35:34;;;;;;;8.10;7.27;;;32.30;22.90;;;;;;5036467;28;20507;-85
2021/04/23 09:38:02;;;;;;;10.70;7.57;;;32.10;22.90;;;;;;5036396;28;20468;-85
2021/04/23 09:40:30;;;;;;;10.70;7.87;;;32.50;22.80;;;;;;5035183;28;20446;-85
2021/04/23 09:42:58;;;;;;;9.03;8.07;;;32.50;22.90;;;;;;5050823;28;20457;-84
2021/04/23 09:45:26;;;;;;;9.30;6.50;;;33.10;22.50;;;;;;5053809;28;20445;-85
2021/04/23 09:47:54;;;;;;;8.03;6.70;;;32.60;22.60;;;;;;5052793;28;20465;-84
2021/04/23 09:50:21;;;;;;;12.47;7.53;;;32.80;22.80;;;;;;5052461;28;20448;-85
2021/04/23 09:52:49;;;;;;;8.90;6.77;;;32.50;22.50;;;;;;5054085;28;20496;-84
2021/04/23 09:55:17;;;;;;;8.70;6.57;;;32.90;22.40;;;;;;5054288;28;20500;-85
2021/04/23 09:57:51;;;;;;;10.67;7.10;;;33.40;21.80;;;;;;5051424;28;20500;-85
2021/04/23 10:00:19;;;;;;;9.27;7.37;;;32.70;21.50;;;;;;5052837;28;20460;-85
2021/04/23 10:02:49;;;;;;;9.60;6.77;;;32.40;22.00;;;;;;5053181;28;20444;-84
2021/04/23 10:05:32;;;;;;;8.53;7.50;;;32.80;22.30;;;;;;5051394;28;20460;-84
2021/04/23 10:07:59;;;;;;;9.27;8.00;;;32.10;22.20;;;;;;5052537;28;20491;-84
2021/04/23 10:10:27;;;;;;;10.57;7.90;;;30.50;23.00;;;;;;5055321;28;20453;-85
2021/04/23 10:12:54;;;;;;;10.90;8.27;;;29.50;23.90;;;;;;5053919;28;20448;-84
2021/04/23 10:15:23;;;;;;;9.93;7.70;;;28.70;24.90;;;;;;5054724;28;20512;-85
2021/04/23 10:17:51;;;;;;;11.80;7.33;;;29.80;24.60;;;;;;5043710;28;20552;-85
2021/04/23 10:20:21;;;;;;;8.20;6.50;;;31.30;23.30;;;;;;5043692;28;20452;-85
2021/04/23 10:22:48;;;;;;;13.83;6.87;;;31.00;23.20;;;;;;5042058;28;20445;-85
2021/04/23 10:25:15;;;;;;;8.77;7.40;;;32.30;23.00;;;;;;5043030;28;20509;-85
2021/04/23 10:27:44;;;;;;;8.20;6.07;;;32.20;22.70;;;;;;5046602;28;20521;-85
2021/04/23 10:30:13;;;;;;;9.37;7.30;;;33.30;22.20;;;;;;5037948;28;20544;-85
2021/04/23 10:32:39;;;;;;;10.30;7.33;;;33.00;21.40;;;;;;5021885;28;20456;-84
2021/04/23 10:35:07;;;;;;;15.57;6.57;;;31.80;21.20;;;;;;5049611;28;20487;-85
2021/04/23 10:37:33;;;;;;;14.23;7.23;;;31.40;22.30;;;;;;5053973;28;20461;-86
2021/04/23 10:40:02;;;;;;;9.87;6.40;;;32.90;22.00;;;;;;5051776;28;20452;-84
2021/04/23 10:42:47;;;;;;;9.40;6.40;;;33.40;20.90;;;;;;5055729;28;20429;-84
2021/04/23 10:45:33;;;;;;;10.27;6.83;;;32.50;20.90;;;;;;5046822;28;20452;-85
2021/04/23 10:48:00;;;;;;;8.80;7.53;;;32.60;21.50;;;;;;5052076;28;20452;-84
2021/04/23 10:50:28;;;;;;;9.90;6.77;;;33.00;21.40;;;;;;5046834;28;20448;-85
2021/04/23 10:53:06;;;;;;;7.70;6.50;;;33.20;21.20;;;;;;5036862;28;21018;-86
2021/04/23 10:55:39;;;;;;;8.47;6.97;;;33.00;20.90;;;;;;5035086;28;20829;-85
2021/04/23 10:58:06;;;;;;;7.47;6.27;;;34.30;20.50;;;;;;5037803;28;20985;-86
2021/04/23 11:00:34;;;;;;;7.40;6.70;;;32.20;20.30;;;;;;5040318;28;20449;-87
2021/04/23 11:03:25;;;;;;;9.10;7.20;;;31.70;21.20;;;;;;5039823;28;20444;-86
2021/04/23 11:05:53;;;;;;;10.43;7.40;;;31.50;22.00;;;;;;5034014;28;20453;-86
2021/04/23 11:08:20;;;;;;;8.97;6.93;;;31.30;21.80;;;;;;5039370;28;20547;-86
2021/04/23 11:11:13;;;;;;;9.10;6.00;;;31.40;22.00;;;;;;5039160;28;20441;-86
2021/04/23 11:13:40;;;;;;;11.10;7.70;;;32.40;21.00;;;;;;5039813;28;20484;-87
2021/04/23 11:16:32;;;;;;;7.03;5.57;;;33.60;20.10;;;;;;5038292;28;20453;-86
2021/04/23 11:19:14;;;;;;;9.70;6.33;;;34.60;19.70;;;;;;5039354;28;20500;-86
2021/04/23 11:21:41;;;;;;;8.27;5.47;;;34.70;18.90;;;;;;5030367;28;20460;-86
2021/04/23 11:24:13;;;;;;;8.20;4.90;;;35.00;17.90;;;;;;5038498;28;20441;-86
2021/04/23 11:27:04;;;;;;;7.37;6.60;;;35.60;17.80;;;;;;5037635;28;20561;-86
2021/04/23 11:29:32;;;;;;;9.00;6.10;;;35.10;18.20;;;;;;5038506;28;20453;-86
2021/04/23 11:32:10;;;;;;;6.27;5.67;;;34.50;18.70;;;;;;5045787;28;20445;-86
2021/04/23 11:34:38;;;;;;;6.73;6.03;;;34.20;18.50;;;;;;5046268;28;20530;-86
2021/04/23 11:37:07;;;;;;;11.30;6.43;;;33.00;19.10;;;;;;5037173;28;20503;-85
2021/04/23 11:39:40;;;;;;;10.43;6.50;;;33.50;18.10;;;;;;5037532;28;20485;-85
2021/04/23 11:42:18;;;;;;;6.40;5.27;;;34.00;18.00;;;;;;5038729;28;20950;-85
2021/04/23 11:44:47;;;;;;;8.73;5.90;;;32.90;17.50;;;;;;5047342;28;20439;-84
2021/04/23 11:47:14;;;;;;;8.97;7.50;;;33.00;18.20;;;;;;5055688;28;20530;-85
2021/04/23 11:49:41;;;;;;;14.53;7.43;;;32.00;19.10;;;;;;5041830;28;20477;-86
2021/04/23 11:52:08;;;;;;;9.83;6.77;;;31.50;20.00;;;;;;5053267;28;20441;-87
2021/04/23 11:54:37;;;;;;;5.70;5.20;;;32.40;19.40;;;;;;5037818;28;20477;-86
2021/04/23 11:57:06;;;;;;;7.80;5.80;;;32.70;19.20;;;;;;5039102;28;20490;-85
2021/04/23 11:59:34;;;;;;;10.03;6.60;;;33.20;19.00;;;;;;5038934;28;20933;-86
2021/04/23 12:02:00;;;;;;;9.27;5.67;;;32.80;19.70;;;;;;5037130;28;20475;-87
2021/04/23 12:04:46;;;;;;;7.80;5.40;;;33.90;19.50;;;;;;5036946;28;20480;-87
2021/04/23 12:07:14;;;;;;;8.50;6.90;;;33.90;17.90;;;;;;5037701;28;21092;-85
2021/04/23 12:09:41;;;;;;;10.03;8.27;;;34.10;18.80;;;;;;5037949;28;20449;-86
2021/04/23 12:12:10;;;;;;;8.73;7.20;;;35.10;18.80;;;;;;5038108;28;20453;-87
2021/04/23 12:14:46;;;;;;;8.73;7.07;;;35.30;18.40;;;;;;5036795;28;20516;-87
2021/04/23 12:17:15;;;;;;;7.93;6.43;;;35.00;18.10;;;;;;5047144;28;20460;-86
2021/04/23 12:19:42;;;;;;;10.03;5.80;;;35.30;17.50;;;;;;5059499;28;20465;-85
2021/04/23 12:22:08;;;;;;;8.90;8.00;;;36.20;17.00;;;;;;5041442;28;20437;-86
2021/04/23 12:24:35;;;;;;;7.77;7.07;;;35.00;17.80;;;;;;5038363;28;20445;-87
2021/04/23 12:27:02;;;;;;;8.73;7.83;;;34.80;18.40;;;;;;5047243;28;20465;-85
2021/04/23 12:29:28;;;;;;;8.27;7.47;;;33.50;18.70;;;;;;5041780;28;20509;-88
2021/04/23 12:31:55;;;;;;;8.20;7.17;;;33.20;19.50;;;;;;5036703;28;20937;-87
2021/04/23 12:34:21;;;;;;;8.33;7.37;;;33.60;19.70;;;;;;5039248;28;20509;-86
2021/04/23 12:36:49;;;;;;;8.60;6.77;;;33.90;19.10;;;;;;5051054;28;20504;-86
2021/04/23 12:39:19;;;;;;;12.47;7.13;;;33.20;19.50;;;;;;5050891;28;20452;-85
2021/04/23 12:41:47;;;;;;;9.73;8.30;;;33.00;19.90;;;;;;5047122;28;20476;-85
2021/04/23 12:44:16;;;;;;;12.00;8.20;;;32.50;19.80;;;;;;5053346;28;20488;-84
2021/04/23 12:46:44;;;;;;;9.57;7.57;;;32.10;20.80;;;;;;5052717;28;20449;-85
2021/04/23 12:49:14;;;;;;;7.27;6.43;;;31.60;20.40;;;;;;5051376;28;20463;-85
2021/04/23 12:51:49;;;;;;;10.63;7.47;;;31.90;20.90;;;;;;5048742;28;20845;-87
2021/04/23 12:54:18;;;;;;;7.77;6.37;;;31.80;20.50;;;;;;5054330;28;20491;-85
2021/04/23 12:56:52;;;;;;;8.50;7.00;;;33.30;20.40;;;;;;5057214;28;20473;-86
2021/04/23 12:59:43;;;;;;;11.73;6.70;;;32.60;20.00;;;;;;5056537;28;20502;-87
2021/04/23 13:02:12;;;;;;;7.30;5.93;;;32.90;20.50;;;;;;5033332;28;20456;-86
2021/04/23 13:04:40;;;;;;;8.33;6.40;;;33.70;19.20;;;;;;5056666;28;20464;-85
2021/04/23 13:07:14;;;;;;;8.30;6.00;;;33.50;18.90;;;;;;5050296;28;20509;-85
2021/04/23 13:09:40;;;;;;;11.20;6.23;;;33.10;19.60;;;;;;5041415;28;20459;-85
2021/04/23 13:12:22;;;;;;;9.00;6.43;;;31.60;19.20;;;;;;5041300;28;20445;-85
2021/04/23 13:14:51;;;;;;;7.57;6.77;;;31.00;19.90;;;;;;5048311;28;20632;-87
2021/04/23 13:17:17;;;;;;;6.93;5.70;;;32.00;20.00;;;;;;5041395;28;20594;-87
2021/04/23 13:19:46;;;;;;;12.70;6.90;;;32.10;19.40;;;;;;5039401;28;20507;-87
2021/04/23 13:22:24;;;;;;;7.50;6.33;;;32.00;19.30;;;;;;5035763;28;20525;-87
2021/04/23 13:24:51;;;;;;;7.30;6.00;;;31.50;18.80;;;;;;5037530;28;20460;-86
2021/04/23 13:27:29;;;;;;;9.57;6.70;;;31.20;19.30;;;;;;5054430;28;20472;-84
2021/04/23 13:29:55;;;;;;;7.97;5.47;;;32.00;19.30;;;;;;5058061;28;20457;-85
2021/04/23 13:32:21;;;;;;;6.80;6.10;;;32.30;19.20;;;;;;5043921;28;20433;-86
2021/04/23 13:34:53;;;;;;;9.77;6.53;;;32.00;18.30;;;;;;5053008;28;20473;-85
2021/04/23 13:37:30;;;;;;;6.83;5.20;;;32.10;18.70;;;;;;5057612;28;20457;-85
2021/04/23 13:40:01;;;;;;;6.47;5.53;;;32.70;18.90;;;;;;5046349;28;20444;-86
2021/04/23 13:42:27;;;;;;;8.43;6.73;;;32.90;18.80;;;;;;5037520;28;20456;-87
2021/04/23 13:44:54;;;;;;;9.27;7.20;;;33.00;18.80;;;;;;5035511;28;20449;-86
2021/04/23 13:47:20;;;;;;;8.47;6.27;;;32.30;19.20;;;;;;5035050;28;21075;-86
2021/04/23 13:49:46;;;;;;;8.87;6.00;;;31.50;19.60;;;;;;5035227;28;20510;-86
2021/04/23 13:52:15;;;;;;;8.10;6.00;;;31.00;21.00;;;;;;5041996;28;20471;-86
2021/04/23 13:54:42;;;;;;;9.33;6.90;;;31.70;20.30;;;;;;5051037;28;20493;-86
2021/04/23 13:57:11;;;;;;;6.57;5.87;;;32.30;19.70;;;;;;5036716;28;20469;-87
2021/04/23 13:59:38;;;;;;;7.37;6.10;;;32.10;19.90;;;;;;5034418;28;20452;-87
2021/04/23 14:02:07;;;;;;;7.20;5.57;;;32.60;19.30;;;;;;5033887;28;20437;-87
2021/04/23 14:04:35;;;;;;;10.30;7.00;;;32.10;19.50;;;;;;5033634;28;20471;-85
2021/04/23 14:07:04;;;;;;;7.80;6.03;;;32.90;18.80;;;;;;5034681;28;20484;-86